sensor_id;sensor_type;location;lat;lon;timestamp;temperature;humidity
16491;DHT22;8356;51.214;3.270;2024-03-06T00:00:55;282.00;2278.40
16491;DHT22;8356;51.214;3.270;2024-03-06T00:03:21;281.90;2278.40
16491;DHT22;8356;51.214;3.270;2024-03-06T00:05:47;282.00;2278.40
16491;DHT22;8356;51.214;3.270;2024-03-06T00:08:13;282.00;2278.40
16491;DHT22;8356;51.214;3.270;2024-03-06T00:10:41;282.00;2278.40
16491;DHT22;8356;51.214;3.270;2024-03-06T00:13:06;282.00;2278.40
16491;DHT22;8356;51.214;3.270;2024-03-06T00:15:32;282.00;2278.40
16491;DHT22;8356;51.214;3.270;2024-03-06T00:17:57;282.00;2278.40
16491;DHT22;8356;51.214;3.270;2024-03-06T00:20:24;282.00;2278.40
16491;DHT22;8356;51.214;3.270;2024-03-06T00:22:49;282.00;2278.40
16491;DHT22;8356;51.214;3.270;2024-03-06T00:25:15;282.00;2278.40
16491;DHT22;8356;51.214;3.270;2024-03-06T00:27:41;282.00;2278.40
16491;DHT22;8356;51.214;3.270;2024-03-06T00:30:07;282.00;2278.40
16491;DHT22;8356;51.214;3.270;2024-03-06T00:32:33;282.10;2278.40
16491;DHT22;8356;51.214;3.270;2024-03-06T00:34:58;282.10;2278.40
16491;DHT22;8356;51.214;3.270;2024-03-06T00:37:24;282.00;2278.40
16491;DHT22;8356;51.214;3.270;2024-03-06T00:39:49;281.90;2278.40
16491;DHT22;8356;51.214;3.270;2024-03-06T00:42:15;282.00;2278.40
16491;DHT22;8356;51.214;3.270;2024-03-06T00:44:41;282.00;2278.40
16491;DHT22;8356;51.214;3.270;2024-03-06T00:47:06;282.00;2278.40
16491;DHT22;8356;51.214;3.270;2024-03-06T00:49:32;281.90;2278.40
16491;DHT22;8356;51.214;3.270;2024-03-06T00:51:58;281.80;2278.40
16491;DHT22;8356;51.214;3.270;2024-03-06T00:54:23;281.90;2278.40
16491;DHT22;8356;51.214;3.270;2024-03-06T00:56:49;281.80;2278.40
16491;DHT22;8356;51.214;3.270;2024-03-06T00:59:15;281.80;2278.40
16491;DHT22;8356;51.214;3.270;2024-03-06T01:01:40;281.60;2278.40
16491;DHT22;8356;51.214;3.270;2024-03-06T01:04:06;282.10;2278.40
16491;DHT22;8356;51.214;3.270;2024-03-06T01:06:32;281.70;2278.40
16491;DHT22;8356;51.214;3.270;2024-03-06T01:08:58;281.80;2278.40
16491;DHT22;8356;51.214;3.270;2024-03-06T01:11:25;281.80;2278.40
16491;DHT22;8356;51.214;3.270;2024-03-06T01:13:52;281.80;2278.40
16491;DHT22;8356;51.214;3.270;2024-03-06T01:16:18;281.80;2278.40
16491;DHT22;8356;51.214;3.270;2024-03-06T01:18:43;281.80;2278.40
16491;DHT22;8356;51.214;3.270;2024-03-06T01:21:09;281.70;2278.40
16491;DHT22;8356;51.214;3.270;2024-03-06T01:23:35;281.70;2278.40
16491;DHT22;8356;51.214;3.270;2024-03-06T01:26:01;281.70;2278.40
16491;DHT22;8356;51.214;3.270;2024-03-06T01:28:27;281.70;2278.40
16491;DHT22;8356;51.214;3.270;2024-03-06T01:30:52;281.80;2278.40
16491;DHT22;8356;51.214;3.270;2024-03-06T01:33:18;281.70;2278.40
16491;DHT22;8356;51.214;3.270;2024-03-06T01:35:44;281.60;2278.40
16491;DHT22;8356;51.214;3.270;2024-03-06T01:38:09;281.60;2278.40
16491;DHT22;8356;51.214;3.270;2024-03-06T01:40:35;281.60;2278.40
16491;DHT22;8356;51.214;3.270;2024-03-06T01:43:01;281.60;2278.40
16491;DHT22;8356;51.214;3.270;2024-03-06T01:45:27;281.60;2278.40
16491;DHT22;8356;51.214;3.270;2024-03-06T01:47:52;281.60;2278.40
16491;DHT22;8356;51.214;3.270;2024-03-06T01:50:18;281.60;2278.40
16491;DHT22;8356;51.214;3.270;2024-03-06T01:52:45;256.80;2252.80
16491;DHT22;8356;51.214;3.270;2024-03-06T01:55:12;256.80;2252.80
16491;DHT22;8356;51.214;3.270;2024-03-06T01:57:39;256.90;2252.80
16491;DHT22;8356;51.214;3.270;2024-03-06T02:00:06;256.80;2252.80
16491;DHT22;8356;51.214;3.270;2024-03-06T02:02:38;256.60;2252.80
16491;DHT22;8356;51.214;3.270;2024-03-06T02:05:03;256.50;2252.80
16491;DHT22;8356;51.214;3.270;2024-03-06T02:07:32;256.40;2252.80
16491;DHT22;8356;51.214;3.270;2024-03-06T02:09:58;256.40;2252.80
16491;DHT22;8356;51.214;3.270;2024-03-06T02:12:24;256.50;2252.80
16491;DHT22;8356;51.214;3.270;2024-03-06T02:14:50;256.50;2252.80
16491;DHT22;8356;51.214;3.270;2024-03-06T02:17:15;256.50;2252.80
16491;DHT22;8356;51.214;3.270;2024-03-06T02:19:43;256.50;2252.80
16491;DHT22;8356;51.214;3.270;2024-03-06T02:22:10;256.50;2252.80
16491;DHT22;8356;51.214;3.270;2024-03-06T02:24:36;256.60;2252.80
16491;DHT22;8356;51.214;3.270;2024-03-06T02:27:03;256.50;2252.80
16491;DHT22;8356;51.214;3.270;2024-03-06T02:29:31;256.20;2252.80
16491;DHT22;8356;51.214;3.270;2024-03-06T02:31:57;256.50;2252.80
16491;DHT22;8356;51.214;3.270;2024-03-06T02:34:23;256.50;2252.80
16491;DHT22;8356;51.214;3.270;2024-03-06T02:36:51;256.50;2252.80
16491;DHT22;8356;51.214;3.270;2024-03-06T02:39:17;256.50;2252.80
16491;DHT22;8356;51.214;3.270;2024-03-06T02:41:43;256.50;2252.80
16491;DHT22;8356;51.214;3.270;2024-03-06T02:44:08;256.40;2252.80
16491;DHT22;8356;51.214;3.270;2024-03-06T02:46:34;256.50;2252.80
16491;DHT22;8356;51.214;3.270;2024-03-06T02:49:00;256.50;2252.80
16491;DHT22;8356;51.214;3.270;2024-03-06T02:51:25;256.50;2252.80
16491;DHT22;8356;51.214;3.270;2024-03-06T02:53:51;256.30;2252.80
16491;DHT22;8356;51.214;3.270;2024-03-06T02:56:18;256.30;2252.80
16491;DHT22;8356;51.214;3.270;2024-03-06T02:58:45;256.30;2252.80
16491;DHT22;8356;51.214;3.270;2024-03-06T03:01:11;256.20;2252.80
16491;DHT22;8356;51.214;3.270;2024-03-06T03:03:36;256.30;2252.80
16491;DHT22;8356;51.214;3.270;2024-03-06T03:06:02;231.20;2252.80
16491;DHT22;8356;51.214;3.270;2024-03-06T03:08:28;230.80;2252.80
16491;DHT22;8356;51.214;3.270;2024-03-06T03:10:54;231.00;2252.80
16491;DHT22;8356;51.214;3.270;2024-03-06T03:13:20;230.90;2252.80
16491;DHT22;8356;51.214;3.270;2024-03-06T03:15:47;230.80;2252.80
16491;DHT22;8356;51.214;3.270;2024-03-06T03:18:13;231.00;2252.80
16491;DHT22;8356;51.214;3.270;2024-03-06T03:20:39;231.00;2252.80
16491;DHT22;8356;51.214;3.270;2024-03-06T03:23:04;230.70;2252.80
16491;DHT22;8356;51.214;3.270;2024-03-06T03:25:31;230.90;2252.80
16491;DHT22;8356;51.214;3.270;2024-03-06T03:27:58;230.90;2252.80
16491;DHT22;8356;51.214;3.270;2024-03-06T03:30:25;230.60;2252.80
16491;DHT22;8356;51.214;3.270;2024-03-06T03:32:50;230.80;2252.80
16491;DHT22;8356;51.214;3.270;2024-03-06T03:35:16;231.00;2252.80
16491;DHT22;8356;51.214;3.270;2024-03-06T03:37:43;231.10;2252.80
16491;DHT22;8356;51.214;3.270;2024-03-06T03:40:09;231.20;2252.80
16491;DHT22;8356;51.214;3.270;2024-03-06T03:42:37;231.30;2252.80
16491;DHT22;8356;51.214;3.270;2024-03-06T03:45:03;231.20;2252.80
16491;DHT22;8356;51.214;3.270;2024-03-06T03:47:30;230.80;2252.80
16491;DHT22;8356;51.214;3.270;2024-03-06T03:49:55;230.60;2252.80
16491;DHT22;8356;51.214;3.270;2024-03-06T03:52:21;230.40;2252.80
16491;DHT22;8356;51.214;3.270;2024-03-06T03:54:47;230.60;2252.80
16491;DHT22;8356;51.214;3.270;2024-03-06T03:57:13;230.50;2252.80
16491;DHT22;8356;51.214;3.270;2024-03-06T03:59:39;230.50;2252.80
16491;DHT22;8356;51.214;3.270;2024-03-06T04:02:06;230.50;2252.80
16491;DHT22;8356;51.214;3.270;2024-03-06T04:04:32;230.40;2252.80
16491;DHT22;8356;51.214;3.270;2024-03-06T04:06:59;230.50;2252.80
16491;DHT22;8356;51.214;3.270;2024-03-06T04:09:29;230.70;2252.80
16491;DHT22;8356;51.214;3.270;2024-03-06T04:11:55;230.70;2252.80
16491;DHT22;8356;51.214;3.270;2024-03-06T04:14:21;230.80;2252.80
16491;DHT22;8356;51.214;3.270;2024-03-06T04:16:47;230.90;2252.80
16491;DHT22;8356;51.214;3.270;2024-03-06T04:19:13;231.10;2252.80
16491;DHT22;8356;51.214;3.270;2024-03-06T04:21:42;231.30;2252.80
16491;DHT22;8356;51.214;3.270;2024-03-06T04:24:08;231.30;2252.80
16491;DHT22;8356;51.214;3.270;2024-03-06T04:26:33;231.20;2252.80
16491;DHT22;8356;51.214;3.270;2024-03-06T04:28:59;231.10;2252.80
16491;DHT22;8356;51.214;3.270;2024-03-06T04:31:25;231.00;2252.80
16491;DHT22;8356;51.214;3.270;2024-03-06T04:33:50;231.30;2252.80
16491;DHT22;8356;51.214;3.270;2024-03-06T04:36:16;256.00;2252.80
16491;DHT22;8356;51.214;3.270;2024-03-06T04:38:42;231.30;2252.80
16491;DHT22;8356;51.214;3.270;2024-03-06T04:41:08;231.20;2252.80
16491;DHT22;8356;51.214;3.270;2024-03-06T04:43:34;231.20;2252.80
16491;DHT22;8356;51.214;3.270;2024-03-06T04:46:00;231.20;2252.80
16491;DHT22;8356;51.214;3.270;2024-03-06T04:48:26;231.10;2252.80
16491;DHT22;8356;51.214;3.270;2024-03-06T04:50:51;231.10;2252.80
16491;DHT22;8356;51.214;3.270;2024-03-06T04:53:18;231.00;2252.80
16491;DHT22;8356;51.214;3.270;2024-03-06T04:55:45;231.00;2252.80
16491;DHT22;8356;51.214;3.270;2024-03-06T04:58:11;231.10;2252.80
16491;DHT22;8356;51.214;3.270;2024-03-06T05:00:37;231.10;2252.80
16491;DHT22;8356;51.214;3.270;2024-03-06T05:03:03;231.30;2252.80
16491;DHT22;8356;51.214;3.270;2024-03-06T05:05:28;256.00;2252.80
16491;DHT22;8356;51.214;3.270;2024-03-06T05:07:55;231.30;2252.80
16491;DHT22;8356;51.214;3.270;2024-03-06T05:10:20;231.30;2252.80
16491;DHT22;8356;51.214;3.270;2024-03-06T05:12:46;256.10;2252.80
16491;DHT22;8356;51.214;3.270;2024-03-06T05:15:14;256.10;2252.80
16491;DHT22;8356;51.214;3.270;2024-03-06T05:17:40;256.00;2252.80
16491;DHT22;8356;51.214;3.270;2024-03-06T05:20:06;256.20;2252.80
16491;DHT22;8356;51.214;3.270;2024-03-06T05:22:32;256.00;2252.80
16491;DHT22;8356;51.214;3.270;2024-03-06T05:24:58;256.00;2252.80
16491;DHT22;8356;51.214;3.270;2024-03-06T05:27:24;256.00;2252.80
16491;DHT22;8356;51.214;3.270;2024-03-06T05:29:50;231.30;2252.80
16491;DHT22;8356;51.214;3.270;2024-03-06T05:32:16;231.30;2252.80
16491;DHT22;8356;51.214;3.270;2024-03-06T05:34:42;231.30;2252.80
16491;DHT22;8356;51.214;3.270;2024-03-06T05:37:08;231.30;2252.80
16491;DHT22;8356;51.214;3.270;2024-03-06T05:39:33;256.00;2252.80
16491;DHT22;8356;51.214;3.270;2024-03-06T05:42:03;256.10;2252.80
16491;DHT22;8356;51.214;3.270;2024-03-06T05:44:32;256.10;2252.80
16491;DHT22;8356;51.214;3.270;2024-03-06T05:46:58;256.10;2252.80
16491;DHT22;8356;51.214;3.270;2024-03-06T05:49:24;256.10;2252.80
16491;DHT22;8356;51.214;3.270;2024-03-06T05:51:51;256.10;2252.80
16491;DHT22;8356;51.214;3.270;2024-03-06T05:54:16;256.20;2252.80
16491;DHT22;8356;51.214;3.270;2024-03-06T05:56:42;256.20;2252.80
16491;DHT22;8356;51.214;3.270;2024-03-06T05:59:08;256.20;2252.80
16491;DHT22;8356;51.214;3.270;2024-03-06T06:01:34;256.30;2252.80
16491;DHT22;8356;51.214;3.270;2024-03-06T06:04:01;256.20;2252.80
16491;DHT22;8356;51.214;3.270;2024-03-06T06:06:26;256.10;2252.80
16491;DHT22;8356;51.214;3.270;2024-03-06T06:08:52;256.10;2252.80
16491;DHT22;8356;51.214;3.270;2024-03-06T06:11:18;256.00;2252.80
16491;DHT22;8356;51.214;3.270;2024-03-06T06:13:44;256.00;2252.80
16491;DHT22;8356;51.214;3.270;2024-03-06T06:16:09;256.10;2252.80
16491;DHT22;8356;51.214;3.270;2024-03-06T06:18:35;256.00;2252.80
16491;DHT22;8356;51.214;3.270;2024-03-06T06:21:01;256.00;2252.80
16491;DHT22;8356;51.214;3.270;2024-03-06T06:23:27;256.10;2252.80
16491;DHT22;8356;51.214;3.270;2024-03-06T06:25:52;256.00;2252.80
16491;DHT22;8356;51.214;3.270;2024-03-06T06:28:18;256.00;2252.80
16491;DHT22;8356;51.214;3.270;2024-03-06T06:30:43;256.00;2252.80
16491;DHT22;8356;51.214;3.270;2024-03-06T06:33:09;256.10;2252.80
16491;DHT22;8356;51.214;3.270;2024-03-06T06:35:35;256.20;2252.80
16491;DHT22;8356;51.214;3.270;2024-03-06T06:38:01;256.20;2252.80
16491;DHT22;8356;51.214;3.270;2024-03-06T06:40:27;256.20;2252.80
16491;DHT22;8356;51.214;3.270;2024-03-06T06:42:53;256.20;2252.80
16491;DHT22;8356;51.214;3.270;2024-03-06T06:45:19;256.20;2252.80
16491;DHT22;8356;51.214;3.270;2024-03-06T06:47:45;256.30;2252.80
16491;DHT22;8356;51.214;3.270;2024-03-06T06:50:11;256.20;2252.80
16491;DHT22;8356;51.214;3.270;2024-03-06T06:52:38;256.30;2252.80
16491;DHT22;8356;51.214;3.270;2024-03-06T06:55:04;256.20;2252.80
16491;DHT22;8356;51.214;3.270;2024-03-06T06:57:31;256.20;2252.80
16491;DHT22;8356;51.214;3.270;2024-03-06T06:59:58;256.10;2252.80
16491;DHT22;8356;51.214;3.270;2024-03-06T07:02:24;256.00;2252.80
16491;DHT22;8356;51.214;3.270;2024-03-06T07:04:51;256.00;2252.80
16491;DHT22;8356;51.214;3.270;2024-03-06T07:07:17;256.00;2252.80
16491;DHT22;8356;51.214;3.270;2024-03-06T07:09:43;231.30;2252.80
16491;DHT22;8356;51.214;3.270;2024-03-06T07:12:09;231.30;2252.80
16491;DHT22;8356;51.214;3.270;2024-03-06T07:14:35;231.20;2252.80
16491;DHT22;8356;51.214;3.270;2024-03-06T07:17:01;231.20;2252.80
16491;DHT22;8356;51.214;3.270;2024-03-06T07:19:26;231.20;2252.80
16491;DHT22;8356;51.214;3.270;2024-03-06T07:21:52;256.00;2252.80
16491;DHT22;8356;51.214;3.270;2024-03-06T07:24:19;231.20;2252.80
16491;DHT22;8356;51.214;3.270;2024-03-06T07:26:44;231.20;2252.80
16491;DHT22;8356;51.214;3.270;2024-03-06T07:29:10;231.20;2252.80
16491;DHT22;8356;51.214;3.270;2024-03-06T07:31:43;231.30;2252.80
16491;DHT22;8356;51.214;3.270;2024-03-06T07:34:13;231.30;2252.80
16491;DHT22;8356;51.214;3.270;2024-03-06T07:36:40;231.30;2252.80
16491;DHT22;8356;51.214;3.270;2024-03-06T07:39:06;231.30;2252.80
16491;DHT22;8356;51.214;3.270;2024-03-06T07:41:32;231.20;2252.80
16491;DHT22;8356;51.214;3.270;2024-03-06T07:43:58;231.20;2252.80
16491;DHT22;8356;51.214;3.270;2024-03-06T07:46:25;231.20;2252.80
16491;DHT22;8356;51.214;3.270;2024-03-06T07:48:51;231.30;2252.80
16491;DHT22;8356;51.214;3.270;2024-03-06T07:51:17;256.00;2252.80
16491;DHT22;8356;51.214;3.270;2024-03-06T07:53:43;256.10;2252.80
16491;DHT22;8356;51.214;3.270;2024-03-06T07:56:12;256.00;2252.80
16491;DHT22;8356;51.214;3.270;2024-03-06T07:58:38;256.00;2252.80
16491;DHT22;8356;51.214;3.270;2024-03-06T08:01:03;256.00;2252.80
16491;DHT22;8356;51.214;3.270;2024-03-06T08:03:29;256.00;2252.80
16491;DHT22;8356;51.214;3.270;2024-03-06T08:05:55;256.10;2252.80
16491;DHT22;8356;51.214;3.270;2024-03-06T08:08:21;256.20;2252.80
16491;DHT22;8356;51.214;3.270;2024-03-06T08:10:47;256.10;2252.80
16491;DHT22;8356;51.214;3.270;2024-03-06T08:13:13;256.10;2252.80
16491;DHT22;8356;51.214;3.270;2024-03-06T08:15:39;256.20;2252.80
16491;DHT22;8356;51.214;3.270;2024-03-06T08:18:05;256.30;2252.80
16491;DHT22;8356;51.214;3.270;2024-03-06T08:20:31;256.50;2252.80
16491;DHT22;8356;51.214;3.270;2024-03-06T08:22:59;256.40;2252.80
16491;DHT22;8356;51.214;3.270;2024-03-06T08:25:24;256.20;2252.80
16491;DHT22;8356;51.214;3.270;2024-03-06T08:27:50;256.20;2252.80
16491;DHT22;8356;51.214;3.270;2024-03-06T08:30:15;256.20;2252.80
16491;DHT22;8356;51.214;3.270;2024-03-06T08:32:41;256.30;2252.80
16491;DHT22;8356;51.214;3.270;2024-03-06T08:35:10;256.40;2252.80
16491;DHT22;8356;51.214;3.270;2024-03-06T08:37:37;256.50;2252.80
16491;DHT22;8356;51.214;3.270;2024-03-06T08:40:03;256.60;2252.80
16491;DHT22;8356;51.214;3.270;2024-03-06T08:42:29;256.70;2252.80
16491;DHT22;8356;51.214;3.270;2024-03-06T08:44:55;256.70;2252.80
16491;DHT22;8356;51.214;3.270;2024-03-06T08:47:22;256.80;2252.80
16491;DHT22;8356;51.214;3.270;2024-03-06T08:49:47;256.90;2252.80
16491;DHT22;8356;51.214;3.270;2024-03-06T08:52:14;256.80;2252.80
16491;DHT22;8356;51.214;3.270;2024-03-06T08:54:42;256.80;2252.80
16491;DHT22;8356;51.214;3.270;2024-03-06T08:57:08;256.90;2252.80
16491;DHT22;8356;51.214;3.270;2024-03-06T08:59:34;256.80;2252.80
16491;DHT22;8356;51.214;3.270;2024-03-06T09:02:17;256.70;2252.80
16491;DHT22;8356;51.214;3.270;2024-03-06T09:04:44;256.70;2252.80
16491;DHT22;8356;51.214;3.270;2024-03-06T09:07:10;256.80;2252.80
16491;DHT22;8356;51.214;3.270;2024-03-06T09:09:36;256.70;2252.80
16491;DHT22;8356;51.214;3.270;2024-03-06T09:12:06;256.90;2252.80
16491;DHT22;8356;51.214;3.270;2024-03-06T09:14:35;281.60;2278.40
16491;DHT22;8356;51.214;3.270;2024-03-06T09:17:01;281.80;2278.40
16491;DHT22;8356;51.214;3.270;2024-03-06T09:19:27;281.80;2278.40
16491;DHT22;8356;51.214;3.270;2024-03-06T09:21:52;282.00;2278.40
16491;DHT22;8356;51.214;3.270;2024-03-06T09:24:19;281.80;2278.40
16491;DHT22;8356;51.214;3.270;2024-03-06T09:26:45;281.80;2278.40
16491;DHT22;8356;51.214;3.270;2024-03-06T09:29:11;281.80;2278.40
16491;DHT22;8356;51.214;3.270;2024-03-06T09:31:36;282.00;2278.40
16491;DHT22;8356;51.214;3.270;2024-03-06T09:34:05;282.00;2278.40
16491;DHT22;8356;51.214;3.270;2024-03-06T09:36:30;282.00;2278.40
16491;DHT22;8356;51.214;3.270;2024-03-06T09:38:58;282.10;2278.40
16491;DHT22;8356;51.214;3.270;2024-03-06T09:41:24;282.10;2278.40
16491;DHT22;8356;51.214;3.270;2024-03-06T09:43:50;282.30;2278.40
16491;DHT22;8356;51.214;3.270;2024-03-06T09:46:17;282.30;2278.40
16491;DHT22;8356;51.214;3.270;2024-03-06T09:48:47;282.50;2278.40
16491;DHT22;8356;51.214;3.270;2024-03-06T09:51:14;282.50;2278.40
16491;DHT22;8356;51.214;3.270;2024-03-06T09:53:40;307.30;2304.00
16491;DHT22;8356;51.214;3.270;2024-03-06T09:56:07;307.60;2304.00
16491;DHT22;8356;51.214;3.270;2024-03-06T09:58:34;307.90;2304.00
16491;DHT22;8356;51.214;3.270;2024-03-06T10:01:01;307.70;2304.00
16491;DHT22;8356;51.214;3.270;2024-03-06T10:03:29;307.80;2304.00
16491;DHT22;8356;51.214;3.270;2024-03-06T10:05:54;307.80;2304.00
16491;DHT22;8356;51.214;3.270;2024-03-06T10:08:21;307.80;2304.00
16491;DHT22;8356;51.214;3.270;2024-03-06T10:10:50;308.10;2304.00
16491;DHT22;8356;51.214;3.270;2024-03-06T10:13:16;332.80;2329.60
16491;DHT22;8356;51.214;3.270;2024-03-06T10:16:15;332.90;2329.60
16491;DHT22;8356;51.214;3.270;2024-03-06T10:18:35;332.80;2329.60
16491;DHT22;8356;51.214;3.270;2024-03-06T10:21:01;308.10;2304.00
16491;DHT22;8356;51.214;3.270;2024-03-06T10:23:27;308.10;2304.00
16491;DHT22;8356;51.214;3.270;2024-03-06T10:25:54;308.10;2304.00
16491;DHT22;8356;51.214;3.270;2024-03-06T10:28:22;308.10;2304.00
16491;DHT22;8356;51.214;3.270;2024-03-06T10:30:48;308.10;2304.00
16491;DHT22;8356;51.214;3.270;2024-03-06T10:33:16;282.30;2278.40
16491;DHT22;8356;51.214;3.270;2024-03-06T10:35:45;332.90;2329.60
16491;DHT22;8356;51.214;3.270;2024-03-06T10:38:12;332.90;2329.60
16491;DHT22;8356;51.214;3.270;2024-03-06T10:40:39;333.10;2329.60
16491;DHT22;8356;51.214;3.270;2024-03-06T10:43:06;333.10;2329.60
16491;DHT22;8356;51.214;3.270;2024-03-06T10:45:41;333.00;2329.60
16491;DHT22;8356;51.214;3.270;2024-03-06T10:48:09;333.40;2329.60
16491;DHT22;8356;51.214;3.270;2024-03-06T10:50:42;333.30;2329.60
16491;DHT22;8356;51.214;3.270;2024-03-06T10:53:17;333.40;2329.60
16491;DHT22;8356;51.214;3.270;2024-03-06T10:55:44;333.50;2329.60
16491;DHT22;8356;51.214;3.270;2024-03-06T10:58:10;333.40;2329.60
16491;DHT22;8356;51.214;3.270;2024-03-06T11:00:41;333.60;2329.60
16491;DHT22;8356;51.214;3.270;2024-03-06T11:03:08;358.50;2329.60
16491;DHT22;8356;51.214;3.270;2024-03-06T11:05:45;358.70;2329.60
16491;DHT22;8356;51.214;3.270;2024-03-06T11:08:13;358.70;2329.60
16491;DHT22;8356;51.214;3.270;2024-03-06T11:10:42;358.60;2329.60
16491;DHT22;8356;51.214;3.270;2024-03-06T11:15:46;359.10;2329.60
16491;DHT22;8356;51.214;3.270;2024-03-06T11:26:43;359.10;2329.60
16491;DHT22;8356;51.214;3.270;2024-03-06T11:29:09;359.00;2329.60
16491;DHT22;8356;51.214;3.270;2024-03-06T11:31:35;358.80;2329.60
16491;DHT22;8356;51.214;3.270;2024-03-06T11:34:04;358.70;2329.60
16491;DHT22;8356;51.214;3.270;2024-03-06T11:36:30;358.80;2329.60
16491;DHT22;8356;51.214;3.270;2024-03-06T11:41:27;359.30;2329.60
16491;DHT22;8356;51.214;3.270;2024-03-06T11:43:54;384.10;2329.60
16491;DHT22;8356;51.214;3.270;2024-03-06T11:46:22;384.30;2329.60
16491;DHT22;8356;51.214;3.270;2024-03-06T11:48:57;384.40;2329.60
16491;DHT22;8356;51.214;3.270;2024-03-06T11:51:23;384.60;2329.60
16491;DHT22;8356;51.214;3.270;2024-03-06T11:53:52;384.40;2329.60
16491;DHT22;8356;51.214;3.270;2024-03-06T11:56:19;384.10;2329.60
16491;DHT22;8356;51.214;3.270;2024-03-06T11:58:46;359.20;2329.60
16491;DHT22;8356;51.214;3.270;2024-03-06T12:01:13;359.30;2329.60
16491;DHT22;8356;51.214;3.270;2024-03-06T12:03:40;384.00;2329.60
16491;DHT22;8356;51.214;3.270;2024-03-06T12:06:06;384.10;2329.60
16491;DHT22;8356;51.214;3.270;2024-03-06T12:08:33;384.00;2329.60
16491;DHT22;8356;51.214;3.270;2024-03-06T12:11:04;359.30;2329.60
16491;DHT22;8356;51.214;3.270;2024-03-06T12:13:30;384.00;2329.60
16491;DHT22;8356;51.214;3.270;2024-03-06T12:15:55;384.20;2329.60
16491;DHT22;8356;51.214;3.270;2024-03-06T12:18:21;384.20;2329.60
16491;DHT22;8356;51.214;3.270;2024-03-06T12:20:50;384.30;2329.60
16491;DHT22;8356;51.214;3.270;2024-03-06T12:23:20;384.40;2329.60
16491;DHT22;8356;51.214;3.270;2024-03-06T12:26:01;384.30;2329.60
16491;DHT22;8356;51.214;3.270;2024-03-06T12:28:27;384.20;2329.60
16491;DHT22;8356;51.214;3.270;2024-03-06T12:30:52;384.10;2329.60
16491;DHT22;8356;51.214;3.270;2024-03-06T12:33:18;384.20;2329.60
16491;DHT22;8356;51.214;3.270;2024-03-06T12:35:45;384.10;2329.60
16491;DHT22;8356;51.214;3.270;2024-03-06T12:38:15;384.00;2329.60
16491;DHT22;8356;51.214;3.270;2024-03-06T12:40:42;384.30;2329.60
16491;DHT22;8356;51.214;3.270;2024-03-06T12:43:08;384.40;2329.60
16491;DHT22;8356;51.214;3.270;2024-03-06T12:45:35;384.70;2329.60
16491;DHT22;8356;51.214;3.270;2024-03-06T12:48:03;384.90;2329.60
16491;DHT22;8356;51.214;3.270;2024-03-06T12:50:29;409.70;2355.20
16491;DHT22;8356;51.214;3.270;2024-03-06T12:52:54;409.80;2355.20
16491;DHT22;8356;51.214;3.270;2024-03-06T12:55:20;409.60;2355.20
16491;DHT22;8356;51.214;3.270;2024-03-06T12:57:45;384.70;2329.60
16491;DHT22;8356;51.214;3.270;2024-03-06T13:00:12;384.60;2329.60
16491;DHT22;8356;51.214;3.270;2024-03-06T13:02:44;384.30;2329.60
16491;DHT22;8356;51.214;3.270;2024-03-06T13:05:10;384.10;2329.60
16491;DHT22;8356;51.214;3.270;2024-03-06T13:07:36;384.10;2329.60
16491;DHT22;8356;51.214;3.270;2024-03-06T13:10:03;384.20;2329.60
16491;DHT22;8356;51.214;3.270;2024-03-06T13:17:21;384.60;2329.60
16491;DHT22;8356;51.214;3.270;2024-03-06T13:19:47;384.60;2329.60
16491;DHT22;8356;51.214;3.270;2024-03-06T13:22:14;384.60;2329.60
16491;DHT22;8356;51.214;3.270;2024-03-06T13:24:40;384.60;2329.60
16491;DHT22;8356;51.214;3.270;2024-03-06T13:27:05;384.70;2329.60
16491;DHT22;8356;51.214;3.270;2024-03-06T13:29:31;384.60;2329.60
16491;DHT22;8356;51.214;3.270;2024-03-06T13:31:57;384.70;2329.60
16491;DHT22;8356;51.214;3.270;2024-03-06T13:34:22;384.70;2329.60
16491;DHT22;8356;51.214;3.270;2024-03-06T13:36:48;384.40;2329.60
16491;DHT22;8356;51.214;3.270;2024-03-06T13:39:13;384.40;2329.60
16491;DHT22;8356;51.214;3.270;2024-03-06T13:41:40;384.50;2329.60
16491;DHT22;8356;51.214;3.270;2024-03-06T13:44:06;384.60;2329.60
16491;DHT22;8356;51.214;3.270;2024-03-06T13:46:33;384.70;2329.60
16491;DHT22;8356;51.214;3.270;2024-03-06T13:48:58;384.90;2329.60
16491;DHT22;8356;51.214;3.270;2024-03-06T13:51:25;409.70;2355.20
16491;DHT22;8356;51.214;3.270;2024-03-06T13:53:51;409.80;2355.20
16491;DHT22;8356;51.214;3.270;2024-03-06T13:56:17;409.90;2355.20
16491;DHT22;8356;51.214;3.270;2024-03-06T13:58:43;409.80;2355.20
16491;DHT22;8356;51.214;3.270;2024-03-06T14:01:09;409.70;2355.20
16491;DHT22;8356;51.214;3.270;2024-03-06T14:03:35;409.80;2355.20
16491;DHT22;8356;51.214;3.270;2024-03-06T14:06:03;409.90;2355.20
16491;DHT22;8356;51.214;3.270;2024-03-06T14:08:29;384.40;2329.60
16491;DHT22;8356;51.214;3.270;2024-03-06T14:10:54;409.70;2355.20
16491;DHT22;8356;51.214;3.270;2024-03-06T14:13:20;409.70;2355.20
16491;DHT22;8356;51.214;3.270;2024-03-06T14:15:46;409.80;2355.20
16491;DHT22;8356;51.214;3.270;2024-03-06T14:18:13;409.90;2355.20
16491;DHT22;8356;51.214;3.270;2024-03-06T14:20:39;409.90;2355.20
16491;DHT22;8356;51.214;3.270;2024-03-06T14:23:05;410.00;2355.20
16491;DHT22;8356;51.214;3.270;2024-03-06T14:25:30;409.90;2355.20
16491;DHT22;8356;51.214;3.270;2024-03-06T14:28:00;409.90;2355.20
16491;DHT22;8356;51.214;3.270;2024-03-06T14:30:26;409.60;2355.20
16491;DHT22;8356;51.214;3.270;2024-03-06T14:32:52;384.80;2329.60
16491;DHT22;8356;51.214;3.270;2024-03-06T14:35:18;384.90;2329.60
16491;DHT22;8356;51.214;3.270;2024-03-06T14:37:44;409.80;2355.20
16491;DHT22;8356;51.214;3.270;2024-03-06T14:40:10;409.80;2355.20
16491;DHT22;8356;51.214;3.270;2024-03-06T14:42:36;409.80;2355.20
16491;DHT22;8356;51.214;3.270;2024-03-06T14:45:02;409.70;2355.20
16491;DHT22;8356;51.214;3.270;2024-03-06T14:47:33;409.90;2355.20
16491;DHT22;8356;51.214;3.270;2024-03-06T14:49:59;409.80;2355.20
16491;DHT22;8356;51.214;3.270;2024-03-06T14:52:25;409.80;2355.20
16491;DHT22;8356;51.214;3.270;2024-03-06T14:54:51;409.90;2355.20
16491;DHT22;8356;51.214;3.270;2024-03-06T14:57:17;410.10;2355.20
16491;DHT22;8356;51.214;3.270;2024-03-06T14:59:42;410.00;2355.20
16491;DHT22;8356;51.214;3.270;2024-03-06T15:02:08;410.20;2355.20
16491;DHT22;8356;51.214;3.270;2024-03-06T15:04:33;410.20;2355.20
16491;DHT22;8356;51.214;3.270;2024-03-06T15:06:59;410.30;2355.20
16491;DHT22;8356;51.214;3.270;2024-03-06T15:09:25;410.20;2355.20
16491;DHT22;8356;51.214;3.270;2024-03-06T15:11:52;410.10;2355.20
16491;DHT22;8356;51.214;3.270;2024-03-06T15:14:18;409.70;2355.20
16491;DHT22;8356;51.214;3.270;2024-03-06T15:16:47;409.70;2355.20